createdAt,value
2022-08-12T00:00:07.514Z,20.92
2022-08-12T00:02:54.285Z,20.87
2022-08-12T00:05:57.107Z,20.67
2022-08-12T00:08:50.599Z,20.57
2022-08-12T00:11:35.900Z,20.41
2022-08-12T00:14:21.068Z,20.36
2022-08-12T00:17:07.419Z,20.33
2022-08-12T00:19:52.781Z,20.29
2022-08-12T00:22:39.664Z,20.32
2022-08-12T00:26:05.661Z,20.36
2022-08-12T00:28:32.752Z,20.43
2022-08-12T00:31:18.364Z,20.43
2022-08-12T00:34:03.568Z,20.35
2022-08-12T00:36:50.817Z,20.30
2022-08-12T00:39:37.006Z,20.31
2022-08-12T00:42:13.569Z,20.38
2022-08-12T00:44:43.319Z,20.37
2022-08-12T00:47:25.183Z,20.26
2022-08-12T00:49:55.312Z,20.17
2022-08-12T00:52:23.144Z,20.15
2022-08-12T00:54:57.134Z,20.19
2022-08-12T00:57:28.964Z,20.15
2022-08-12T01:00:01.798Z,20.09
2022-08-12T01:02:34.261Z,20.18
2022-08-12T01:05:23.655Z,20.22
2022-08-12T01:08:09.516Z,20.27
2022-08-12T01:10:57.850Z,20.27
2022-08-12T01:13:25.988Z,20.21
2022-08-12T01:15:55.394Z,20.20
2022-08-12T01:18:24.674Z,20.20
2022-08-12T01:21:03.737Z,20.20
2022-08-12T01:23:43.409Z,20.24
2022-08-12T01:26:16.616Z,20.24
2022-08-12T01:28:46.579Z,20.26
2022-08-12T01:31:16.481Z,20.29
2022-08-12T01:33:58.151Z,20.32
2022-08-12T01:36:27.872Z,20.35
2022-08-12T01:39:01.958Z,20.38
2022-08-12T01:41:33.442Z,20.38
2022-08-12T01:44:01.706Z,20.40
2022-08-12T01:46:38.501Z,20.40
2022-08-12T01:49:14.575Z,20.43
2022-08-12T01:52:20.636Z,20.45
2022-08-12T01:54:44.524Z,20.47
2022-08-12T01:57:59.733Z,20.48
2022-08-12T02:00:13.809Z,20.49
2022-08-12T02:02:47.817Z,20.49
2022-08-12T02:05:35.562Z,20.49
2022-08-12T02:08:52.472Z,20.52
2022-08-12T02:11:31.784Z,20.51
2022-08-12T02:14:05.500Z,20.53
2022-08-12T02:16:58.048Z,20.53
2022-08-12T02:20:01.783Z,20.51
2022-08-12T02:22:34.765Z,20.51
2022-08-12T02:25:06.912Z,20.51
2022-08-12T02:27:55.246Z,20.51
2022-08-12T02:30:25.534Z,20.51
2022-08-12T02:33:04.578Z,20.51
2022-08-12T02:35:34.030Z,20.48
2022-08-12T02:38:04.328Z,20.46
2022-08-12T02:40:31.297Z,20.47
2022-08-12T02:43:30.179Z,20.45
2022-08-12T02:46:00.348Z,20.44
2022-08-12T02:48:39.673Z,20.44
2022-08-12T02:51:09.879Z,20.40
2022-08-12T02:53:37.885Z,20.38
2022-08-12T02:56:06.497Z,20.36
2022-08-12T02:58:35.757Z,20.31
2022-08-12T03:01:11.738Z,20.29
2022-08-12T03:03:40.374Z,20.29
2022-08-12T03:06:12.640Z,20.24
2022-08-12T03:08:42.271Z,20.22
2022-08-12T03:11:41.637Z,20.20
2022-08-12T03:14:14.372Z,20.18
2022-08-12T03:16:42.107Z,20.18
2022-08-12T03:19:08.945Z,20.15
2022-08-12T03:21:52.947Z,20.18
2022-08-12T03:24:27.396Z,20.16
2022-08-12T03:26:55.256Z,20.16
2022-08-12T03:29:32.745Z,20.16
2022-08-12T03:32:35.762Z,20.11
2022-08-12T03:35:07.790Z,20.07
2022-08-12T03:37:37.279Z,20.01
2022-08-12T03:40:04.975Z,19.97
2022-08-12T03:42:41.154Z,19.95
2022-08-12T03:45:51.997Z,19.99
2022-08-12T03:48:38.538Z,19.95
2022-08-12T03:51:24.271Z,19.92
2022-08-12T03:54:11.591Z,19.86
2022-08-12T03:56:58.203Z,19.87
2022-08-12T03:59:44.071Z,19.84
2022-08-12T04:02:15.572Z,19.91
2022-08-12T04:04:45.442Z,19.98
2022-08-12T04:07:14.034Z,20.02
2022-08-12T04:09:44.641Z,19.99
2022-08-12T04:12:32.906Z,19.98
2022-08-12T04:15:00.995Z,19.94
2022-08-12T04:17:28.604Z,19.95
2022-08-12T04:19:57.759Z,19.85
2022-08-12T04:22:29.716Z,19.83
2022-08-12T04:25:00.960Z,19.87
2022-08-12T04:27:30.204Z,19.94
2022-08-12T04:30:17.722Z,19.98
2022-08-12T04:32:45.898Z,20.03
2022-08-12T04:35:12.802Z,20.01
2022-08-12T04:37:58.061Z,20.01
2022-08-12T04:40:33.023Z,20.02
2022-08-12T04:43:03.516Z,20.00
2022-08-12T04:45:37.574Z,20.08
2022-08-12T04:48:05.138Z,20.19
2022-08-12T04:50:35.203Z,20.22
2022-08-12T04:53:08.706Z,20.29
2022-08-12T04:55:38.491Z,20.31
2022-08-12T04:58:06.567Z,20.34
2022-08-12T05:00:33.593Z,20.41
2022-08-12T05:03:00.553Z,20.50
2022-08-12T05:05:30.394Z,20.60
2022-08-12T05:08:00.603Z,20.66
2022-08-12T05:10:33.776Z,20.72
2022-08-12T05:13:07.159Z,20.81
2022-08-12T05:15:36.026Z,20.88
2022-08-12T05:18:03.607Z,20.98
2022-08-12T05:20:48.382Z,21.07
2022-08-12T05:23:17.520Z,21.16
2022-08-12T05:25:57.116Z,21.25
2022-08-12T05:28:26.973Z,21.30
2022-08-12T05:30:58.440Z,21.33
2022-08-12T05:33:33.105Z,21.42
2022-08-12T05:35:59.792Z,21.53
2022-08-12T05:38:44.910Z,21.58
2022-08-12T05:41:20.306Z,21.63
2022-08-12T05:43:58.703Z,21.72
2022-08-12T05:46:31.722Z,21.77
2022-08-12T05:49:00.846Z,21.79
2022-08-12T05:51:40.337Z,21.86
2022-08-12T05:54:08.939Z,21.94
2022-08-12T05:56:36.234Z,22.03
2022-08-12T05:59:08.666Z,22.06
2022-08-12T06:02:11.828Z,22.10
2022-08-12T06:04:22.950Z,22.17
2022-08-12T06:06:53.132Z,22.25
2022-08-12T06:09:19.836Z,22.25
2022-08-12T06:12:04.950Z,22.39
2022-08-12T06:14:36.959Z,22.56
2022-08-12T06:17:05.311Z,22.66
2022-08-12T06:20:26.210Z,22.76
2022-08-12T06:22:19.171Z,22.78
2022-08-12T06:24:46.491Z,22.77
2022-08-12T06:27:17.677Z,22.74
2022-08-12T06:30:09.990Z,22.77
2022-08-12T06:32:31.242Z,22.82
2022-08-12T06:35:25.658Z,22.81
2022-08-12T06:37:50.353Z,22.87
2022-08-12T06:40:41.846Z,22.96
2022-08-12T06:43:12.099Z,23.07
2022-08-12T06:45:46.725Z,23.11
2022-08-12T06:48:14.469Z,23.10
2022-08-12T06:50:44.813Z,23.21
2022-08-12T06:53:11.742Z,23.35
2022-08-12T06:55:57.865Z,23.44
2022-08-12T06:58:26.457Z,23.45
2022-08-12T07:00:54.601Z,23.55
2022-08-12T07:03:25.673Z,23.67
2022-08-12T07:05:52.491Z,23.81
2022-08-12T07:08:19.122Z,23.86
2022-08-12T07:10:59.520Z,23.94
2022-08-12T07:13:28.495Z,23.99
2022-08-12T07:15:57.030Z,24.05
2022-08-12T07:18:28.490Z,24.12
2022-08-12T07:20:55.160Z,24.15
2022-08-12T07:23:24.405Z,24.20
2022-08-12T07:25:53.099Z,24.26
2022-08-12T07:28:29.288Z,24.31
2022-08-12T07:30:57.567Z,24.36
2022-08-12T07:33:29.440Z,24.33
2022-08-12T07:35:58.816Z,24.38
2022-08-12T07:38:33.446Z,24.51
2022-08-12T07:41:03.327Z,24.59
2022-08-12T07:43:31.830Z,24.64
2022-08-12T07:46:00.447Z,24.72
2022-08-12T07:48:28.098Z,24.78
2022-08-12T07:50:55.105Z,24.88
2022-08-12T07:53:21.865Z,24.94
2022-08-12T07:55:48.540Z,25.02
2022-08-12T07:58:15.194Z,25.04
2022-08-12T08:00:42.445Z,25.00
2022-08-12T08:03:09.154Z,25.00
2022-08-12T08:05:49.538Z,25.13
2022-08-12T08:08:22.707Z,25.19
2022-08-12T08:10:51.565Z,25.22
2022-08-12T08:13:19.054Z,25.22
2022-08-12T08:16:02.366Z,25.33
2022-08-12T08:18:31.294Z,25.39
2022-08-12T08:20:57.919Z,25.40
2022-08-12T08:23:56.329Z,25.54
2022-08-12T08:26:26.937Z,25.61
2022-08-12T08:28:53.901Z,25.58
2022-08-12T08:31:21.489Z,25.57
2022-08-12T08:34:04.761Z,25.69
2022-08-12T08:36:34.861Z,25.76
2022-08-12T08:39:04.360Z,25.85
2022-08-12T08:42:16.578Z,25.97
2022-08-12T08:44:41.247Z,26.07
2022-08-12T08:47:09.872Z,26.09
2022-08-12T08:49:37.788Z,26.18
2022-08-12T08:52:06.592Z,26.24
2022-08-12T08:54:37.968Z,26.30
2022-08-12T08:57:07.941Z,26.25
2022-08-12T08:59:35.780Z,26.20
2022-08-12T09:02:02.638Z,26.24
2022-08-12T09:05:11.944Z,26.30
2022-08-12T09:07:51.728Z,26.38
2022-08-12T09:10:09.219Z,26.48
2022-08-12T09:13:23.315Z,26.65
2022-08-12T09:15:56.025Z,26.70
2022-08-12T09:18:26.693Z,26.59
2022-08-12T09:21:02.150Z,26.62
2022-08-12T09:23:57.297Z,26.76
2022-08-12T09:26:19.062Z,26.97
2022-08-12T09:32:03.759Z,27.21
2022-08-12T09:34:29.178Z,27.38
2022-08-12T09:36:58.230Z,27.50
2022-08-12T09:40:04.394Z,27.57
2022-08-12T09:42:42.923Z,27.65
2022-08-12T09:45:23.415Z,27.72
2022-08-12T09:47:59.142Z,27.81
2022-08-12T09:50:27.437Z,27.81
2022-08-12T09:53:14.992Z,27.80
2022-08-12T09:56:40.208Z,27.85
2022-08-12T09:58:57.729Z,27.88
2022-08-12T10:01:24.440Z,27.95
2022-08-12T10:04:03.190Z,28.02
2022-08-12T10:06:36.184Z,28.00
2022-08-12T10:09:08.406Z,27.98
2022-08-12T10:12:10.562Z,28.08
2022-08-12T10:14:39.875Z,28.23
2022-08-12T10:17:23.457Z,28.28
2022-08-12T10:19:52.594Z,28.32
2022-08-12T10:22:39.692Z,28.20
2022-08-12T10:26:34.055Z,27.94
2022-08-12T10:28:34.959Z,28.29
2022-08-12T10:31:04.848Z,28.45
2022-08-12T10:33:33.390Z,28.64
2022-08-12T10:36:02.062Z,28.78
2022-08-12T10:38:39.051Z,28.83
2022-08-12T10:41:58.290Z,28.88
2022-08-12T10:44:17.516Z,28.87
2022-08-12T10:46:49.295Z,29.00
2022-08-12T10:50:05.050Z,28.94
2022-08-12T10:52:34.856Z,29.06
2022-08-12T10:54:55.921Z,29.20
2022-08-12T10:58:14.745Z,29.22
2022-08-12T11:00:33.739Z,28.99
2022-08-12T11:04:23.903Z,29.00
2022-08-12T11:07:06.727Z,29.16
2022-08-12T11:08:43.379Z,29.36
2022-08-12T11:11:17.618Z,29.42
2022-08-12T11:13:48.872Z,29.07
2022-08-12T11:16:23.305Z,29.19
2022-08-12T11:18:54.886Z,29.15
2022-08-12T11:21:22.655Z,29.28
2022-08-12T11:24:30.057Z,29.47
2022-08-12T11:30:02.000Z,29.71
2022-08-12T11:32:16.848Z,29.74
2022-08-12T11:34:51.968Z,29.78
2022-08-12T11:37:24.897Z,29.88
2022-08-12T11:42:39.862Z,30.09
2022-08-12T11:45:16.614Z,30.09
2022-08-12T11:47:44.686Z,30.11
2022-08-12T11:50:19.120Z,30.21
2022-08-12T11:53:02.371Z,30.29
2022-08-12T11:55:29.744Z,30.34
2022-08-12T11:59:14.614Z,30.37
2022-08-12T12:03:44.257Z,30.31
2022-08-12T12:06:16.925Z,30.49
2022-08-12T12:08:50.380Z,30.58
2022-08-12T12:11:18.476Z,30.57
2022-08-12T12:14:08.101Z,30.31
2022-08-12T12:16:33.531Z,30.48
2022-08-12T12:19:05.534Z,30.53
2022-08-12T12:21:46.939Z,30.54
2022-08-12T12:24:21.699Z,30.75
2022-08-12T12:27:00.706Z,30.86
2022-08-12T12:30:19.595Z,31.03
2022-08-12T12:32:18.647Z,30.08
2022-08-12T12:35:14.570Z,29.69
2022-08-12T12:38:04.251Z,29.85
2022-08-12T12:40:29.768Z,28.19
2022-08-12T12:43:00.453Z,27.14
2022-08-12T12:45:33.567Z,27.12
2022-08-12T12:48:04.919Z,26.69
2022-08-12T12:50:42.810Z,26.50
2022-08-12T12:54:08.229Z,27.03
2022-08-12T12:56:05.706Z,26.59
2022-08-12T12:58:34.660Z,26.78
2022-08-12T13:01:04.825Z,26.52
2022-08-12T13:03:54.097Z,26.52
2022-08-12T13:06:31.669Z,26.38
2022-08-12T13:09:03.807Z,26.10
2022-08-12T13:11:41.651Z,25.85
2022-08-12T13:14:27.871Z,26.45
2022-08-12T13:16:55.347Z,26.99
2022-08-12T13:19:36.039Z,27.39
2022-08-12T13:22:20.734Z,26.95
2022-08-12T13:24:54.943Z,27.24
2022-08-12T13:27:46.224Z,27.12
2022-08-12T13:30:20.419Z,27.46
2022-08-12T13:32:58.406Z,27.44
2022-08-12T13:35:33.217Z,27.14
2022-08-12T13:38:02.659Z,27.57
2022-08-12T13:40:32.421Z,26.86
2022-08-12T13:43:01.713Z,26.96
2022-08-12T13:45:30.968Z,27.19
2022-08-12T13:48:03.591Z,27.08
2022-08-12T13:50:41.269Z,27.71
2022-08-12T13:53:24.873Z,27.29
2022-08-12T13:55:59.456Z,27.42
2022-08-12T13:58:30.025Z,27.55
2022-08-12T14:00:58.068Z,27.23
2022-08-12T14:03:28.706Z,27.63
2022-08-12T14:06:15.181Z,27.33
2022-08-12T14:08:43.181Z,27.76
2022-08-12T14:11:12.433Z,27.92
2022-08-12T14:14:05.147Z,28.04
2022-08-12T14:16:38.228Z,27.77
2022-08-12T14:19:18.467Z,27.50
2022-08-12T14:21:59.672Z,27.73
2022-08-12T14:24:30.804Z,27.31
2022-08-12T14:27:01.906Z,27.43
2022-08-12T14:30:04.893Z,27.32
2022-08-12T14:32:17.679Z,27.51
2022-08-12T14:34:47.219Z,27.59
2022-08-12T14:37:57.113Z,27.53
2022-08-12T14:40:05.840Z,27.29
2022-08-12T14:42:34.654Z,27.24
2022-08-12T14:45:02.212Z,27.26
2022-08-12T14:47:34.957Z,27.27
2022-08-12T14:50:37.107Z,27.50
2022-08-12T14:58:31.766Z,27.52
2022-08-12T15:01:21.528Z,27.42
2022-08-12T15:04:01.582Z,27.47
2022-08-12T15:06:39.862Z,27.40
2022-08-12T15:09:29.235Z,27.17
2022-08-12T15:12:06.172Z,27.41
2022-08-12T15:14:42.892Z,27.61
2022-08-12T15:17:12.472Z,27.05
2022-08-12T15:20:31.033Z,27.24
2022-08-12T15:22:53.813Z,27.39
2022-08-12T15:25:21.077Z,27.60
2022-08-12T15:28:10.985Z,27.81
2022-08-12T15:30:43.788Z,27.61
2022-08-12T15:33:15.659Z,27.37
2022-08-12T15:35:51.915Z,27.13
2022-08-12T15:38:22.091Z,27.16
2022-08-12T15:40:54.801Z,27.12
2022-08-12T15:44:16.224Z,27.42
2022-08-12T15:46:15.086Z,27.56
2022-08-12T15:48:46.978Z,27.47
2022-08-12T15:51:58.982Z,27.37
2022-08-12T15:54:33.169Z,26.86
2022-08-12T15:57:07.579Z,26.80
2022-08-12T16:00:03.842Z,26.92
2022-08-12T16:02:52.482Z,26.83
2022-08-12T16:06:11.564Z,26.88
2022-08-12T16:08:17.208Z,27.21
2022-08-12T16:10:47.301Z,27.35
2022-08-12T16:13:32.315Z,27.35
2022-08-12T16:16:24.121Z,27.37
2022-08-12T16:20:01.740Z,27.06
2022-08-12T16:22:11.454Z,27.10
2022-08-12T16:24:43.670Z,26.81
2022-08-12T16:27:16.283Z,26.96
2022-08-12T16:29:52.694Z,27.04
2022-08-12T16:32:24.188Z,27.03
2022-08-12T16:34:56.013Z,27.43
2022-08-12T16:38:04.701Z,27.43
2022-08-12T16:40:13.027Z,27.30
2022-08-12T16:42:42.253Z,27.55
2022-08-12T16:46:07.804Z,28.02
2022-08-12T16:48:34.134Z,27.87
2022-08-12T16:51:09.207Z,27.74
2022-08-12T16:53:44.314Z,27.63
2022-08-12T16:56:14.979Z,27.93
2022-08-12T16:58:43.290Z,27.87
2022-08-12T17:01:14.460Z,27.85
2022-08-12T17:04:09.022Z,28.05
2022-08-12T17:06:41.510Z,28.36
2022-08-12T17:09:17.974Z,28.68
2022-08-12T17:11:48.954Z,29.20
2022-08-12T17:14:16.973Z,29.35
2022-08-12T17:16:45.610Z,29.27
2022-08-12T17:19:13.950Z,29.31
2022-08-12T17:22:01.543Z,28.87
2022-08-12T17:24:32.481Z,28.61
2022-08-12T17:27:14.451Z,28.78
2022-08-12T17:30:01.079Z,28.96
2022-08-12T17:32:33.611Z,28.86
2022-08-12T17:35:20.106Z,29.46
2022-08-12T17:37:48.545Z,29.64
2022-08-12T17:40:34.542Z,29.72
2022-08-12T17:43:55.786Z,29.56
2022-08-12T17:45:59.002Z,29.69
2022-08-12T17:48:35.216Z,29.82
2022-08-12T17:51:12.501Z,29.78
2022-08-12T17:54:11.004Z,29.37
2022-08-12T17:56:32.651Z,29.02
2022-08-12T17:59:01.133Z,28.83
2022-08-12T18:01:29.351Z,28.64
2022-08-12T18:04:21.470Z,28.45
2022-08-12T18:06:53.995Z,28.23
2022-08-12T18:09:24.556Z,27.94
2022-08-12T18:12:14.594Z,27.75
2022-08-12T18:14:56.421Z,27.52
2022-08-12T18:17:32.287Z,27.44
2022-08-12T18:20:27.152Z,27.45
2022-08-12T18:23:15.488Z,26.96
2022-08-12T18:26:15.204Z,26.76
2022-08-12T18:28:50.686Z,26.64
2022-08-12T18:31:44.777Z,26.56
2022-08-12T18:34:24.940Z,26.52
2022-08-12T18:37:24.285Z,26.57
2022-08-12T18:40:08.632Z,26.31
2022-08-12T18:42:36.249Z,26.08
2022-08-12T18:45:03.836Z,25.99
2022-08-12T18:47:50.109Z,25.87
2022-08-12T18:50:26.753Z,25.74
2022-08-12T18:54:05.169Z,25.76
2022-08-12T18:56:04.484Z,25.61
2022-08-12T18:58:36.604Z,25.59
2022-08-12T19:01:08.714Z,25.61
2022-08-12T19:04:01.747Z,25.41
2022-08-12T19:06:38.134Z,25.27
2022-08-12T19:09:11.436Z,24.99
2022-08-12T19:11:57.535Z,24.90
2022-08-12T19:14:28.112Z,24.84
2022-08-12T19:16:57.758Z,24.75
2022-08-12T19:19:24.794Z,24.60
2022-08-12T19:21:56.480Z,24.57
2022-08-12T19:24:42.317Z,24.58
2022-08-12T19:27:11.043Z,24.62
2022-08-12T19:29:44.118Z,24.64
2022-08-12T19:32:13.235Z,24.75
2022-08-12T19:36:06.471Z,24.72
2022-08-12T19:38:04.119Z,24.75
2022-08-12T19:40:32.327Z,24.67
2022-08-12T19:43:19.590Z,24.74
2022-08-12T19:45:56.783Z,24.79
2022-08-12T19:48:30.709Z,24.78
2022-08-12T19:51:09.335Z,24.83
2022-08-12T19:53:57.501Z,24.80
2022-08-12T19:56:28.056Z,24.79
2022-08-12T19:59:18.763Z,24.78
2022-08-12T20:02:03.281Z,24.69
2022-08-12T20:04:35.520Z,24.66
2022-08-12T20:07:06.574Z,24.55
2022-08-12T20:09:39.694Z,24.58
2022-08-12T20:12:12.226Z,24.57
2022-08-12T20:14:52.442Z,24.50
2022-08-12T20:17:23.636Z,24.46
2022-08-12T20:20:17.747Z,24.40
2022-08-12T20:22:43.003Z,24.34
2022-08-12T20:25:12.351Z,24.30
2022-08-12T20:28:04.885Z,24.21
2022-08-12T20:30:53.439Z,24.23
2022-08-12T20:33:50.279Z,24.18
2022-08-12T20:36:42.854Z,23.95
2022-08-12T20:39:34.104Z,23.74
2022-08-12T20:42:07.498Z,23.44
2022-08-12T20:44:40.787Z,23.12
2022-08-12T20:47:19.538Z,23.14
2022-08-12T20:49:54.923Z,23.25
2022-08-12T20:52:30.238Z,23.40
2022-08-12T20:55:00.361Z,23.42
2022-08-12T20:57:37.648Z,23.47
2022-08-12T21:00:15.328Z,23.54
2022-08-12T21:02:50.008Z,23.57
2022-08-12T21:06:09.315Z,23.46
2022-08-12T21:08:27.302Z,23.44
2022-08-12T21:10:58.909Z,23.38
2022-08-12T21:13:26.864Z,23.33
2022-08-12T21:15:58.978Z,23.33
2022-08-12T21:18:28.926Z,23.28
2022-08-12T21:20:58.850Z,23.28
2022-08-12T21:23:30.921Z,23.27
2022-08-12T21:26:16.252Z,23.35
2022-08-12T21:28:58.760Z,23.46
2022-08-12T21:32:39.570Z,23.52
2022-08-12T21:34:17.946Z,23.44
2022-08-12T21:36:49.453Z,23.33
2022-08-12T21:39:21.390Z,23.26
2022-08-12T21:41:56.185Z,23.31
2022-08-12T21:45:45.941Z,23.30
2022-08-12T21:47:21.179Z,23.28
2022-08-12T21:50:03.877Z,23.26
2022-08-12T21:52:41.884Z,23.23
2022-08-12T21:55:18.682Z,23.22
2022-08-12T21:57:54.701Z,23.19
2022-08-12T22:00:34.997Z,23.20
2022-08-12T22:04:03.143Z,23.18
2022-08-12T22:06:26.245Z,23.11
2022-08-12T22:09:02.722Z,23.15
2022-08-12T22:11:41.812Z,23.14
2022-08-12T22:14:18.000Z,23.08
2022-08-12T22:16:50.917Z,23.05
2022-08-12T22:19:19.505Z,23.00
2022-08-12T22:21:52.315Z,22.99
2022-08-12T22:24:26.510Z,22.93
2022-08-12T22:27:28.394Z,22.94
2022-08-12T22:30:16.528Z,22.89
2022-08-12T22:32:51.595Z,22.93
2022-08-12T22:35:47.634Z,22.87
2022-08-12T22:38:25.073Z,22.82
2022-08-12T22:41:03.958Z,22.80
2022-08-12T22:43:59.853Z,22.75
2022-08-12T22:46:53.981Z,22.65
2022-08-12T22:49:49.144Z,22.55
2022-08-12T22:52:23.051Z,22.52
2022-08-12T22:55:03.733Z,22.54
2022-08-12T22:57:49.357Z,22.53
2022-08-12T23:00:24.448Z,22.47
2022-08-12T23:02:58.448Z,22.45
2022-08-12T23:05:57.504Z,22.39
2022-08-12T23:08:17.756Z,22.35
2022-08-12T23:10:48.352Z,22.25
2022-08-12T23:13:43.407Z,22.27
2022-08-12T23:16:18.239Z,22.28
2022-08-12T23:19:01.419Z,22.28
2022-08-12T23:22:03.666Z,22.23
2022-08-12T23:24:26.048Z,22.16
2022-08-12T23:27:11.677Z,22.14
2022-08-12T23:29:43.968Z,22.13
2022-08-12T23:32:36.424Z,22.11
2022-08-12T23:35:18.875Z,22.06
2022-08-12T23:37:54.544Z,22.11
2022-08-12T23:40:24.528Z,22.06
2022-08-12T23:42:54.091Z,22.03
2022-08-12T23:45:32.060Z,21.91
2022-08-12T23:48:02.256Z,21.81
2022-08-12T23:50:33.808Z,21.73
2022-08-12T23:53:05.409Z,21.65
2022-08-12T23:55:40.797Z,21.55
2022-08-12T23:58:21.077Z,21.42
